sensor_id;sensor_type;location;lat;lon;timestamp;P1;durP1;ratioP1;P2;durP2;ratioP2
36475;SDS011;56615;42.682;23.364;2023-12-20T00:01:47;150.10;;;88.70;;
36475;SDS011;56615;42.682;23.364;2023-12-20T00:04:12;157.60;;;89.38;;
36475;SDS011;56615;42.682;23.364;2023-12-20T00:06:38;160.20;;;87.65;;
36475;SDS011;56615;42.682;23.364;2023-12-20T00:09:04;152.32;;;88.43;;
36475;SDS011;56615;42.682;23.364;2023-12-20T00:11:29;150.38;;;85.78;;
36475;SDS011;56615;42.682;23.364;2023-12-20T00:13:56;156.63;;;86.90;;
36475;SDS011;56615;42.682;23.364;2023-12-20T00:16:22;141.32;;;83.28;;
36475;SDS011;56615;42.682;23.364;2023-12-20T00:18:47;157.75;;;88.10;;
36475;SDS011;56615;42.682;23.364;2023-12-20T00:21:13;150.30;;;88.85;;
36475;SDS011;56615;42.682;23.364;2023-12-20T00:23:39;159.50;;;89.25;;
36475;SDS011;56615;42.682;23.364;2023-12-20T00:26:04;153.50;;;85.13;;
36475;SDS011;56615;42.682;23.364;2023-12-20T00:28:30;182.35;;;98.75;;
36475;SDS011;56615;42.682;23.364;2023-12-20T00:30:55;166.05;;;94.40;;
36475;SDS011;56615;42.682;23.364;2023-12-20T00:33:21;159.50;;;90.43;;
36475;SDS011;56615;42.682;23.364;2023-12-20T00:35:46;155.68;;;88.57;;
36475;SDS011;56615;42.682;23.364;2023-12-20T00:38:11;157.07;;;91.25;;
36475;SDS011;56615;42.682;23.364;2023-12-20T00:40:37;174.68;;;95.45;;
36475;SDS011;56615;42.682;23.364;2023-12-20T00:43:03;178.02;;;101.47;;
36475;SDS011;56615;42.682;23.364;2023-12-20T00:45:29;196.27;;;109.20;;
36475;SDS011;56615;42.682;23.364;2023-12-20T00:47:55;190.77;;;108.63;;
36475;SDS011;56615;42.682;23.364;2023-12-20T00:50:22;176.32;;;101.07;;
36475;SDS011;56615;42.682;23.364;2023-12-20T00:52:48;198.38;;;108.40;;
36475;SDS011;56615;42.682;23.364;2023-12-20T00:55:14;245.95;;;127.13;;
36475;SDS011;56615;42.682;23.364;2023-12-20T00:57:40;271.77;;;138.40;;
36475;SDS011;56615;42.682;23.364;2023-12-20T01:00:25;289.77;;;150.63;;
36475;SDS011;56615;42.682;23.364;2023-12-20T01:02:52;298.52;;;148.38;;
36475;SDS011;56615;42.682;23.364;2023-12-20T01:05:18;293.70;;;146.00;;
36475;SDS011;56615;42.682;23.364;2023-12-20T01:07:44;303.60;;;154.32;;
36475;SDS011;56615;42.682;23.364;2023-12-20T01:10:09;299.15;;;154.55;;
36475;SDS011;56615;42.682;23.364;2023-12-20T01:12:35;310.13;;;158.02;;
36475;SDS011;56615;42.682;23.364;2023-12-20T01:15:01;347.17;;;171.80;;
36475;SDS011;56615;42.682;23.364;2023-12-20T01:17:26;338.67;;;163.77;;
36475;SDS011;56615;42.682;23.364;2023-12-20T01:19:52;338.90;;;171.25;;
36475;SDS011;56615;42.682;23.364;2023-12-20T01:22:17;348.13;;;180.15;;
36475;SDS011;56615;42.682;23.364;2023-12-20T01:24:43;366.60;;;184.68;;
36475;SDS011;56615;42.682;23.364;2023-12-20T01:27:08;362.10;;;182.15;;
36475;SDS011;56615;42.682;23.364;2023-12-20T01:29:34;360.85;;;184.60;;
36475;SDS011;56615;42.682;23.364;2023-12-20T01:32:00;352.45;;;180.85;;
36475;SDS011;56615;42.682;23.364;2023-12-20T01:34:27;338.33;;;170.68;;
36475;SDS011;56615;42.682;23.364;2023-12-20T01:36:54;295.83;;;150.20;;
36475;SDS011;56615;42.682;23.364;2023-12-20T01:39:19;291.67;;;143.75;;
36475;SDS011;56615;42.682;23.364;2023-12-20T01:41:54;287.23;;;135.73;;
36475;SDS011;56615;42.682;23.364;2023-12-20T01:45:03;261.80;;;132.75;;
36475;SDS011;56615;42.682;23.364;2023-12-20T01:47:30;256.23;;;127.07;;
36475;SDS011;56615;42.682;23.364;2023-12-20T01:49:57;245.00;;;124.63;;
36475;SDS011;56615;42.682;23.364;2023-12-20T01:52:23;237.27;;;121.30;;
36475;SDS011;56615;42.682;23.364;2023-12-20T01:54:49;231.20;;;121.30;;
36475;SDS011;56615;42.682;23.364;2023-12-20T01:57:16;234.82;;;118.50;;
36475;SDS011;56615;42.682;23.364;2023-12-20T01:59:41;237.35;;;120.45;;
36475;SDS011;56615;42.682;23.364;2023-12-20T02:02:07;239.82;;;121.07;;
36475;SDS011;56615;42.682;23.364;2023-12-20T02:04:33;230.07;;;118.03;;
36475;SDS011;56615;42.682;23.364;2023-12-20T02:06:58;214.32;;;114.63;;
36475;SDS011;56615;42.682;23.364;2023-12-20T02:09:43;220.88;;;112.20;;
36475;SDS011;56615;42.682;23.364;2023-12-20T02:12:08;219.32;;;110.53;;
36475;SDS011;56615;42.682;23.364;2023-12-20T02:14:34;207.57;;;109.43;;
36475;SDS011;56615;42.682;23.364;2023-12-20T02:17:00;188.45;;;103.93;;
36475;SDS011;56615;42.682;23.364;2023-12-20T02:19:27;182.43;;;100.00;;
36475;SDS011;56615;42.682;23.364;2023-12-20T02:22:04;184.30;;;99.65;;
36475;SDS011;56615;42.682;23.364;2023-12-20T02:24:39;188.93;;;102.28;;
36475;SDS011;56615;42.682;23.364;2023-12-20T02:27:05;197.38;;;102.78;;
36475;SDS011;56615;42.682;23.364;2023-12-20T02:29:33;183.50;;;101.97;;
36475;SDS011;56615;42.682;23.364;2023-12-20T02:32:04;185.63;;;102.60;;
36475;SDS011;56615;42.682;23.364;2023-12-20T02:34:30;182.38;;;102.07;;
36475;SDS011;56615;42.682;23.364;2023-12-20T02:36:56;178.40;;;100.30;;
36475;SDS011;56615;42.682;23.364;2023-12-20T02:39:22;182.80;;;98.28;;
36475;SDS011;56615;42.682;23.364;2023-12-20T02:41:47;184.73;;;99.95;;
36475;SDS011;56615;42.682;23.364;2023-12-20T02:44:16;190.13;;;100.82;;
36475;SDS011;56615;42.682;23.364;2023-12-20T02:46:41;179.88;;;100.25;;
36475;SDS011;56615;42.682;23.364;2023-12-20T02:49:08;162.93;;;92.75;;
36475;SDS011;56615;42.682;23.364;2023-12-20T02:51:34;159.85;;;90.32;;
36475;SDS011;56615;42.682;23.364;2023-12-20T02:53:59;154.90;;;87.88;;
36475;SDS011;56615;42.682;23.364;2023-12-20T02:56:26;149.93;;;85.18;;
36475;SDS011;56615;42.682;23.364;2023-12-20T02:58:53;143.70;;;81.07;;
36475;SDS011;56615;42.682;23.364;2023-12-20T03:01:19;120.57;;;73.55;;
36475;SDS011;56615;42.682;23.364;2023-12-20T03:03:45;113.68;;;63.35;;
36475;SDS011;56615;42.682;23.364;2023-12-20T03:06:11;113.53;;;64.13;;
36475;SDS011;56615;42.682;23.364;2023-12-20T03:08:48;115.82;;;69.10;;
36475;SDS011;56615;42.682;23.364;2023-12-20T03:11:14;122.72;;;68.82;;
36475;SDS011;56615;42.682;23.364;2023-12-20T03:13:40;126.30;;;68.40;;
36475;SDS011;56615;42.682;23.364;2023-12-20T03:16:09;116.28;;;62.53;;
36475;SDS011;56615;42.682;23.364;2023-12-20T03:18:36;107.35;;;62.28;;
36475;SDS011;56615;42.682;23.364;2023-12-20T03:21:01;117.78;;;64.80;;
36475;SDS011;56615;42.682;23.364;2023-12-20T03:23:28;153.55;;;81.40;;
36475;SDS011;56615;42.682;23.364;2023-12-20T03:25:55;128.50;;;70.20;;
36475;SDS011;56615;42.682;23.364;2023-12-20T03:28:21;234.15;;;110.43;;
36475;SDS011;56615;42.682;23.364;2023-12-20T03:30:46;146.15;;;77.93;;
36475;SDS011;56615;42.682;23.364;2023-12-20T03:33:11;111.15;;;60.67;;
36475;SDS011;56615;42.682;23.364;2023-12-20T03:35:38;97.90;;;53.38;;
36475;SDS011;56615;42.682;23.364;2023-12-20T03:38:03;94.43;;;49.28;;
36475;SDS011;56615;42.682;23.364;2023-12-20T03:40:29;96.20;;;51.15;;
36475;SDS011;56615;42.682;23.364;2023-12-20T03:42:55;88.22;;;47.47;;
36475;SDS011;56615;42.682;23.364;2023-12-20T03:45:22;88.65;;;46.78;;
36475;SDS011;56615;42.682;23.364;2023-12-20T03:47:48;78.60;;;44.50;;
36475;SDS011;56615;42.682;23.364;2023-12-20T03:50:13;75.90;;;41.83;;
36475;SDS011;56615;42.682;23.364;2023-12-20T03:52:39;76.72;;;41.30;;
36475;SDS011;56615;42.682;23.364;2023-12-20T03:55:05;202.63;;;88.88;;
36475;SDS011;56615;42.682;23.364;2023-12-20T03:57:32;146.35;;;74.20;;
36475;SDS011;56615;42.682;23.364;2023-12-20T03:59:58;103.07;;;53.25;;
36475;SDS011;56615;42.682;23.364;2023-12-20T04:02:23;87.65;;;48.20;;
36475;SDS011;56615;42.682;23.364;2023-12-20T04:04:49;79.05;;;44.63;;
36475;SDS011;56615;42.682;23.364;2023-12-20T04:07:15;82.50;;;47.25;;
36475;SDS011;56615;42.682;23.364;2023-12-20T04:09:41;91.30;;;48.05;;
36475;SDS011;56615;42.682;23.364;2023-12-20T04:12:07;89.78;;;48.67;;
36475;SDS011;56615;42.682;23.364;2023-12-20T04:14:32;95.18;;;52.50;;
36475;SDS011;56615;42.682;23.364;2023-12-20T04:16:58;94.65;;;54.45;;
36475;SDS011;56615;42.682;23.364;2023-12-20T04:19:23;98.82;;;54.83;;
36475;SDS011;56615;42.682;23.364;2023-12-20T04:21:48;98.88;;;54.38;;
36475;SDS011;56615;42.682;23.364;2023-12-20T04:24:14;102.07;;;53.38;;
36475;SDS011;56615;42.682;23.364;2023-12-20T04:26:39;104.40;;;57.70;;
36475;SDS011;56615;42.682;23.364;2023-12-20T04:29:04;106.15;;;58.08;;
36475;SDS011;56615;42.682;23.364;2023-12-20T04:31:30;109.35;;;59.83;;
36475;SDS011;56615;42.682;23.364;2023-12-20T04:33:55;132.88;;;66.15;;
36475;SDS011;56615;42.682;23.364;2023-12-20T04:36:21;134.18;;;68.07;;
36475;SDS011;56615;42.682;23.364;2023-12-20T04:38:46;131.05;;;68.30;;
36475;SDS011;56615;42.682;23.364;2023-12-20T04:41:11;144.98;;;67.20;;
36475;SDS011;56615;42.682;23.364;2023-12-20T04:43:40;124.88;;;66.85;;
36475;SDS011;56615;42.682;23.364;2023-12-20T04:46:06;139.57;;;71.90;;
36475;SDS011;56615;42.682;23.364;2023-12-20T04:48:32;121.80;;;64.72;;
36475;SDS011;56615;42.682;23.364;2023-12-20T04:50:58;119.70;;;65.50;;
36475;SDS011;56615;42.682;23.364;2023-12-20T04:53:23;118.47;;;65.38;;
36475;SDS011;56615;42.682;23.364;2023-12-20T04:55:48;111.57;;;58.70;;
36475;SDS011;56615;42.682;23.364;2023-12-20T04:58:14;114.03;;;59.60;;
36475;SDS011;56615;42.682;23.364;2023-12-20T05:00:39;137.63;;;54.35;;
36475;SDS011;56615;42.682;23.364;2023-12-20T05:03:05;134.20;;;56.33;;
36475;SDS011;56615;42.682;23.364;2023-12-20T05:05:30;105.07;;;54.65;;
36475;SDS011;56615;42.682;23.364;2023-12-20T05:07:56;117.85;;;54.25;;
36475;SDS011;56615;42.682;23.364;2023-12-20T05:10:23;110.00;;;54.47;;
36475;SDS011;56615;42.682;23.364;2023-12-20T05:12:48;115.22;;;58.95;;
36475;SDS011;56615;42.682;23.364;2023-12-20T05:15:14;110.93;;;55.22;;
36475;SDS011;56615;42.682;23.364;2023-12-20T05:17:39;114.45;;;53.03;;
36475;SDS011;56615;42.682;23.364;2023-12-20T05:20:05;100.00;;;50.75;;
36475;SDS011;56615;42.682;23.364;2023-12-20T05:22:31;96.40;;;50.97;;
36475;SDS011;56615;42.682;23.364;2023-12-20T05:24:56;101.60;;;52.08;;
36475;SDS011;56615;42.682;23.364;2023-12-20T05:27:21;107.93;;;53.58;;
36475;SDS011;56615;42.682;23.364;2023-12-20T05:29:47;101.85;;;52.13;;
36475;SDS011;56615;42.682;23.364;2023-12-20T05:32:13;94.55;;;51.30;;
36475;SDS011;56615;42.682;23.364;2023-12-20T05:37:44;105.43;;;50.22;;
36475;SDS011;56615;42.682;23.364;2023-12-20T05:40:10;115.82;;;53.47;;
36475;SDS011;56615;42.682;23.364;2023-12-20T05:42:36;117.78;;;52.53;;
36475;SDS011;56615;42.682;23.364;2023-12-20T05:45:04;118.78;;;51.45;;
36475;SDS011;56615;42.682;23.364;2023-12-20T05:47:32;119.88;;;50.42;;
36475;SDS011;56615;42.682;23.364;2023-12-20T05:49:58;107.63;;;49.90;;
36475;SDS011;56615;42.682;23.364;2023-12-20T05:52:25;114.07;;;52.08;;
36475;SDS011;56615;42.682;23.364;2023-12-20T05:54:52;100.45;;;50.60;;
36475;SDS011;56615;42.682;23.364;2023-12-20T05:57:19;118.10;;;40.30;;
36475;SDS011;56615;42.682;23.364;2023-12-20T05:59:44;110.13;;;41.83;;
36475;SDS011;56615;42.682;23.364;2023-12-20T06:02:09;115.25;;;40.00;;
36475;SDS011;56615;42.682;23.364;2023-12-20T06:04:35;102.45;;;37.50;;
36475;SDS011;56615;42.682;23.364;2023-12-20T06:07:00;81.57;;;35.45;;
36475;SDS011;56615;42.682;23.364;2023-12-20T06:09:28;96.40;;;32.70;;
36475;SDS011;56615;42.682;23.364;2023-12-20T06:11:57;864.08;;;489.65;;
36475;SDS011;56615;42.682;23.364;2023-12-20T06:14:23;202.02;;;71.70;;
36475;SDS011;56615;42.682;23.364;2023-12-20T06:16:48;109.65;;;32.70;;
36475;SDS011;56615;42.682;23.364;2023-12-20T06:19:16;98.90;;;31.42;;
36475;SDS011;56615;42.682;23.364;2023-12-20T06:21:42;123.22;;;32.47;;
36475;SDS011;56615;42.682;23.364;2023-12-20T06:24:07;85.03;;;33.45;;
36475;SDS011;56615;42.682;23.364;2023-12-20T06:26:33;92.40;;;29.58;;
36475;SDS011;56615;42.682;23.364;2023-12-20T06:28:58;90.20;;;29.35;;
36475;SDS011;56615;42.682;23.364;2023-12-20T06:31:26;87.88;;;30.00;;
36475;SDS011;56615;42.682;23.364;2023-12-20T06:33:53;64.57;;;30.20;;
36475;SDS011;56615;42.682;23.364;2023-12-20T06:36:22;68.28;;;31.45;;
36475;SDS011;56615;42.682;23.364;2023-12-20T06:38:48;83.93;;;31.75;;
36475;SDS011;56615;42.682;23.364;2023-12-20T06:41:13;73.72;;;31.23;;
36475;SDS011;56615;42.682;23.364;2023-12-20T06:43:40;75.60;;;31.15;;
36475;SDS011;56615;42.682;23.364;2023-12-20T06:46:06;164.57;;;90.05;;
36475;SDS011;56615;42.682;23.364;2023-12-20T06:48:32;63.30;;;32.25;;
36475;SDS011;56615;42.682;23.364;2023-12-20T06:50:59;67.05;;;32.65;;
36475;SDS011;56615;42.682;23.364;2023-12-20T06:53:29;65.05;;;32.45;;
36475;SDS011;56615;42.682;23.364;2023-12-20T06:55:55;59.85;;;30.65;;
36475;SDS011;56615;42.682;23.364;2023-12-20T06:58:21;62.08;;;29.98;;
36475;SDS011;56615;42.682;23.364;2023-12-20T07:00:47;62.83;;;30.77;;
36475;SDS011;56615;42.682;23.364;2023-12-20T07:03:12;61.47;;;31.15;;
36475;SDS011;56615;42.682;23.364;2023-12-20T07:05:43;66.47;;;30.65;;
36475;SDS011;56615;42.682;23.364;2023-12-20T07:08:09;68.72;;;31.17;;
36475;SDS011;56615;42.682;23.364;2023-12-20T07:10:36;72.88;;;35.85;;
36475;SDS011;56615;42.682;23.364;2023-12-20T07:13:01;66.75;;;32.83;;
36475;SDS011;56615;42.682;23.364;2023-12-20T07:15:33;71.55;;;30.88;;
36475;SDS011;56615;42.682;23.364;2023-12-20T07:18:01;58.90;;;27.85;;
36475;SDS011;56615;42.682;23.364;2023-12-20T07:20:28;56.15;;;28.40;;
36475;SDS011;56615;42.682;23.364;2023-12-20T07:22:54;58.67;;;29.08;;
36475;SDS011;56615;42.682;23.364;2023-12-20T07:25:21;52.55;;;29.73;;
36475;SDS011;56615;42.682;23.364;2023-12-20T07:27:47;61.25;;;30.55;;
36475;SDS011;56615;42.682;23.364;2023-12-20T07:30:12;58.97;;;30.80;;
36475;SDS011;56615;42.682;23.364;2023-12-20T07:32:40;56.25;;;29.30;;
36475;SDS011;56615;42.682;23.364;2023-12-20T07:35:06;58.65;;;30.48;;
36475;SDS011;56615;42.682;23.364;2023-12-20T07:37:31;66.47;;;32.00;;
36475;SDS011;56615;42.682;23.364;2023-12-20T07:42:42;70.15;;;32.65;;
36475;SDS011;56615;42.682;23.364;2023-12-20T07:45:08;72.95;;;34.92;;
36475;SDS011;56615;42.682;23.364;2023-12-20T07:47:35;70.63;;;34.40;;
36475;SDS011;56615;42.682;23.364;2023-12-20T07:50:01;68.57;;;35.28;;
36475;SDS011;56615;42.682;23.364;2023-12-20T07:52:29;65.22;;;34.72;;
36475;SDS011;56615;42.682;23.364;2023-12-20T07:54:59;68.68;;;33.20;;
36475;SDS011;56615;42.682;23.364;2023-12-20T08:00:14;67.53;;;32.72;;
36475;SDS011;56615;42.682;23.364;2023-12-20T08:02:40;64.30;;;32.67;;
36475;SDS011;56615;42.682;23.364;2023-12-20T08:05:28;65.00;;;33.03;;
36475;SDS011;56615;42.682;23.364;2023-12-20T08:08:02;63.30;;;32.20;;
36475;SDS011;56615;42.682;23.364;2023-12-20T08:10:27;62.55;;;31.77;;
36475;SDS011;56615;42.682;23.364;2023-12-20T08:12:55;63.78;;;33.28;;
36475;SDS011;56615;42.682;23.364;2023-12-20T08:15:20;70.88;;;35.10;;
36475;SDS011;56615;42.682;23.364;2023-12-20T08:17:46;70.68;;;34.15;;
36475;SDS011;56615;42.682;23.364;2023-12-20T08:20:11;71.20;;;35.80;;
36475;SDS011;56615;42.682;23.364;2023-12-20T08:22:40;82.00;;;37.78;;
36475;SDS011;56615;42.682;23.364;2023-12-20T08:25:05;77.65;;;38.10;;
36475;SDS011;56615;42.682;23.364;2023-12-20T08:27:31;77.75;;;37.13;;
36475;SDS011;56615;42.682;23.364;2023-12-20T08:29:57;104.05;;;52.97;;
36475;SDS011;56615;42.682;23.364;2023-12-20T08:32:34;94.85;;;42.38;;
36475;SDS011;56615;42.682;23.364;2023-12-20T08:35:06;97.63;;;43.28;;
36475;SDS011;56615;42.682;23.364;2023-12-20T08:37:32;104.13;;;44.05;;
36475;SDS011;56615;42.682;23.364;2023-12-20T08:40:07;96.93;;;44.55;;
36475;SDS011;56615;42.682;23.364;2023-12-20T08:42:44;96.32;;;41.45;;
36475;SDS011;56615;42.682;23.364;2023-12-20T08:45:09;86.65;;;39.75;;
36475;SDS011;56615;42.682;23.364;2023-12-20T08:47:38;91.40;;;40.38;;
36475;SDS011;56615;42.682;23.364;2023-12-20T08:50:03;108.00;;;46.88;;
36475;SDS011;56615;42.682;23.364;2023-12-20T08:52:29;115.38;;;48.53;;
36475;SDS011;56615;42.682;23.364;2023-12-20T08:54:56;102.15;;;44.75;;
36475;SDS011;56615;42.682;23.364;2023-12-20T08:57:21;95.38;;;43.38;;
36475;SDS011;56615;42.682;23.364;2023-12-20T08:59:48;109.97;;;44.03;;
36475;SDS011;56615;42.682;23.364;2023-12-20T09:02:17;106.18;;;46.03;;
36475;SDS011;56615;42.682;23.364;2023-12-20T09:04:43;120.90;;;49.78;;
36475;SDS011;56615;42.682;23.364;2023-12-20T09:07:24;106.95;;;44.80;;
36475;SDS011;56615;42.682;23.364;2023-12-20T09:09:52;99.10;;;42.92;;
36475;SDS011;56615;42.682;23.364;2023-12-20T09:15:40;109.93;;;44.17;;
36475;SDS011;56615;42.682;23.364;2023-12-20T09:18:05;95.60;;;41.65;;
36475;SDS011;56615;42.682;23.364;2023-12-20T09:20:31;95.28;;;42.60;;
36475;SDS011;56615;42.682;23.364;2023-12-20T09:22:56;96.13;;;43.17;;
36475;SDS011;56615;42.682;23.364;2023-12-20T09:25:24;97.47;;;45.33;;
36475;SDS011;56615;42.682;23.364;2023-12-20T09:27:51;118.03;;;44.42;;
36475;SDS011;56615;42.682;23.364;2023-12-20T09:30:17;113.65;;;46.38;;
36475;SDS011;56615;42.682;23.364;2023-12-20T09:32:43;128.00;;;48.55;;
36475;SDS011;56615;42.682;23.364;2023-12-20T09:35:08;118.30;;;46.08;;
36475;SDS011;56615;42.682;23.364;2023-12-20T09:37:34;126.38;;;47.58;;
36475;SDS011;56615;42.682;23.364;2023-12-20T09:39:59;115.00;;;47.88;;
36475;SDS011;56615;42.682;23.364;2023-12-20T09:42:38;126.13;;;50.67;;
36475;SDS011;56615;42.682;23.364;2023-12-20T09:45:08;118.28;;;50.28;;
36475;SDS011;56615;42.682;23.364;2023-12-20T09:47:35;119.72;;;52.72;;
36475;SDS011;56615;42.682;23.364;2023-12-20T09:50:02;124.97;;;50.15;;
36475;SDS011;56615;42.682;23.364;2023-12-20T09:52:28;335.85;;;183.73;;
36475;SDS011;56615;42.682;23.364;2023-12-20T09:54:53;126.43;;;53.78;;
36475;SDS011;56615;42.682;23.364;2023-12-20T09:57:20;115.22;;;47.42;;
36475;SDS011;56615;42.682;23.364;2023-12-20T09:59:45;102.50;;;44.25;;
36475;SDS011;56615;42.682;23.364;2023-12-20T10:02:12;105.40;;;43.22;;
36475;SDS011;56615;42.682;23.364;2023-12-20T10:04:40;109.22;;;45.90;;
36475;SDS011;56615;42.682;23.364;2023-12-20T10:07:13;99.63;;;43.75;;
36475;SDS011;56615;42.682;23.364;2023-12-20T10:09:38;108.82;;;45.03;;
36475;SDS011;56615;42.682;23.364;2023-12-20T10:12:04;115.30;;;46.70;;
36475;SDS011;56615;42.682;23.364;2023-12-20T10:14:30;108.00;;;46.78;;
36475;SDS011;56615;42.682;23.364;2023-12-20T10:17:03;107.68;;;45.92;;
36475;SDS011;56615;42.682;23.364;2023-12-20T10:19:30;106.60;;;45.17;;
36475;SDS011;56615;42.682;23.364;2023-12-20T10:21:56;103.75;;;45.25;;
36475;SDS011;56615;42.682;23.364;2023-12-20T10:24:23;105.68;;;48.35;;
36475;SDS011;56615;42.682;23.364;2023-12-20T10:26:48;106.63;;;46.22;;
36475;SDS011;56615;42.682;23.364;2023-12-20T10:29:30;103.18;;;46.40;;
36475;SDS011;56615;42.682;23.364;2023-12-20T10:32:00;110.95;;;48.85;;
36475;SDS011;56615;42.682;23.364;2023-12-20T10:34:38;185.70;;;98.13;;
36475;SDS011;56615;42.682;23.364;2023-12-20T10:37:04;106.60;;;48.38;;
36475;SDS011;56615;42.682;23.364;2023-12-20T10:39:29;107.80;;;47.13;;
36475;SDS011;56615;42.682;23.364;2023-12-20T10:41:54;102.03;;;45.03;;
36475;SDS011;56615;42.682;23.364;2023-12-20T10:44:20;101.70;;;48.03;;
36475;SDS011;56615;42.682;23.364;2023-12-20T10:46:45;109.30;;;48.17;;
36475;SDS011;56615;42.682;23.364;2023-12-20T10:49:16;111.57;;;51.70;;
36475;SDS011;56615;42.682;23.364;2023-12-20T10:51:42;116.22;;;52.03;;
36475;SDS011;56615;42.682;23.364;2023-12-20T10:54:10;122.70;;;55.45;;
36475;SDS011;56615;42.682;23.364;2023-12-20T10:56:37;120.35;;;56.20;;
36475;SDS011;56615;42.682;23.364;2023-12-20T10:59:08;147.45;;;69.43;;
36475;SDS011;56615;42.682;23.364;2023-12-20T11:01:42;128.80;;;57.70;;
36475;SDS011;56615;42.682;23.364;2023-12-20T11:04:09;128.57;;;58.20;;
36475;SDS011;56615;42.682;23.364;2023-12-20T11:09:25;119.97;;;57.42;;
36475;SDS011;56615;42.682;23.364;2023-12-20T11:14:50;107.22;;;51.05;;
36475;SDS011;56615;42.682;23.364;2023-12-20T11:17:32;100.15;;;48.25;;
36475;SDS011;56615;42.682;23.364;2023-12-20T11:25:21;107.13;;;48.65;;
36475;SDS011;56615;42.682;23.364;2023-12-20T11:30:47;110.07;;;52.28;;
36475;SDS011;56615;42.682;23.364;2023-12-20T11:33:14;110.93;;;52.08;;
36475;SDS011;56615;42.682;23.364;2023-12-20T11:35:41;111.93;;;52.65;;
36475;SDS011;56615;42.682;23.364;2023-12-20T11:38:19;106.70;;;49.15;;
36475;SDS011;56615;42.682;23.364;2023-12-20T11:40:45;102.53;;;48.35;;
36475;SDS011;56615;42.682;23.364;2023-12-20T11:43:29;108.53;;;50.70;;
36475;SDS011;56615;42.682;23.364;2023-12-20T11:45:55;110.68;;;51.05;;
36475;SDS011;56615;42.682;23.364;2023-12-20T11:48:39;134.52;;;65.35;;
36475;SDS011;56615;42.682;23.364;2023-12-20T11:51:12;121.13;;;53.85;;
36475;SDS011;56615;42.682;23.364;2023-12-20T11:53:38;128.63;;;57.45;;
36475;SDS011;56615;42.682;23.364;2023-12-20T11:56:06;128.52;;;57.10;;
36475;SDS011;56615;42.682;23.364;2023-12-20T11:58:32;122.95;;;56.35;;
36475;SDS011;56615;42.682;23.364;2023-12-20T12:00:58;126.35;;;55.53;;
36475;SDS011;56615;42.682;23.364;2023-12-20T12:06:44;126.05;;;54.33;;
36475;SDS011;56615;42.682;23.364;2023-12-20T12:09:10;129.43;;;57.00;;
36475;SDS011;56615;42.682;23.364;2023-12-20T12:11:35;180.20;;;81.05;;
36475;SDS011;56615;42.682;23.364;2023-12-20T12:14:01;136.65;;;59.10;;
36475;SDS011;56615;42.682;23.364;2023-12-20T12:16:26;130.02;;;57.03;;
36475;SDS011;56615;42.682;23.364;2023-12-20T12:18:58;124.90;;;55.28;;
36475;SDS011;56615;42.682;23.364;2023-12-20T12:21:26;131.45;;;57.17;;
36475;SDS011;56615;42.682;23.364;2023-12-20T12:23:52;126.43;;;55.42;;
36475;SDS011;56615;42.682;23.364;2023-12-20T12:26:20;131.05;;;57.63;;
36475;SDS011;56615;42.682;23.364;2023-12-20T12:28:47;125.68;;;54.47;;
36475;SDS011;56615;42.682;23.364;2023-12-20T12:31:19;127.00;;;55.30;;
36475;SDS011;56615;42.682;23.364;2023-12-20T12:33:45;127.05;;;56.75;;
36475;SDS011;56615;42.682;23.364;2023-12-20T12:36:13;123.13;;;52.38;;
36475;SDS011;56615;42.682;23.364;2023-12-20T12:38:41;130.85;;;56.53;;
36475;SDS011;56615;42.682;23.364;2023-12-20T12:41:06;122.50;;;54.60;;
36475;SDS011;56615;42.682;23.364;2023-12-20T12:43:32;126.70;;;54.88;;
36475;SDS011;56615;42.682;23.364;2023-12-20T12:46:00;125.63;;;53.63;;
36475;SDS011;56615;42.682;23.364;2023-12-20T12:48:34;125.90;;;53.60;;
36475;SDS011;56615;42.682;23.364;2023-12-20T12:51:01;126.63;;;54.47;;
36475;SDS011;56615;42.682;23.364;2023-12-20T12:53:26;135.48;;;58.25;;
36475;SDS011;56615;42.682;23.364;2023-12-20T12:55:52;143.48;;;59.83;;
36475;SDS011;56615;42.682;23.364;2023-12-20T12:58:19;148.10;;;61.35;;
36475;SDS011;56615;42.682;23.364;2023-12-20T13:00:47;146.35;;;62.78;;
36475;SDS011;56615;42.682;23.364;2023-12-20T13:03:14;210.90;;;91.78;;
36475;SDS011;56615;42.682;23.364;2023-12-20T13:05:44;225.50;;;101.07;;
36475;SDS011;56615;42.682;23.364;2023-12-20T13:08:12;200.23;;;87.35;;
36475;SDS011;56615;42.682;23.364;2023-12-20T13:10:43;294.90;;;129.88;;
36475;SDS011;56615;42.682;23.364;2023-12-20T13:13:14;170.05;;;74.18;;
36475;SDS011;56615;42.682;23.364;2023-12-20T13:15:39;177.93;;;75.25;;
36475;SDS011;56615;42.682;23.364;2023-12-20T13:18:16;156.80;;;65.00;;
36475;SDS011;56615;42.682;23.364;2023-12-20T13:20:46;151.55;;;61.45;;
36475;SDS011;56615;42.682;23.364;2023-12-20T13:23:35;160.48;;;59.92;;
36475;SDS011;56615;42.682;23.364;2023-12-20T13:26:03;138.23;;;55.67;;
36475;SDS011;56615;42.682;23.364;2023-12-20T13:28:41;122.93;;;54.88;;
36475;SDS011;56615;42.682;23.364;2023-12-20T13:31:07;139.02;;;54.78;;
36475;SDS011;56615;42.682;23.364;2023-12-20T13:33:34;131.88;;;54.60;;
36475;SDS011;56615;42.682;23.364;2023-12-20T13:35:59;120.72;;;50.53;;
36475;SDS011;56615;42.682;23.364;2023-12-20T13:38:24;129.88;;;51.78;;
36475;SDS011;56615;42.682;23.364;2023-12-20T13:40:59;123.40;;;49.60;;
36475;SDS011;56615;42.682;23.364;2023-12-20T13:43:28;198.57;;;50.10;;
36475;SDS011;56615;42.682;23.364;2023-12-20T13:45:53;132.38;;;47.67;;
36475;SDS011;56615;42.682;23.364;2023-12-20T13:48:20;127.68;;;49.10;;
36475;SDS011;56615;42.682;23.364;2023-12-20T13:50:48;134.07;;;50.35;;
36475;SDS011;56615;42.682;23.364;2023-12-20T13:53:16;135.73;;;50.60;;
36475;SDS011;56615;42.682;23.364;2023-12-20T13:55:42;120.53;;;48.20;;
36475;SDS011;56615;42.682;23.364;2023-12-20T13:58:07;113.10;;;46.90;;
36475;SDS011;56615;42.682;23.364;2023-12-20T14:00:38;126.55;;;50.47;;
36475;SDS011;56615;42.682;23.364;2023-12-20T14:03:09;133.18;;;52.42;;
36475;SDS011;56615;42.682;23.364;2023-12-20T14:05:35;125.97;;;51.92;;
36475;SDS011;56615;42.682;23.364;2023-12-20T14:08:00;130.80;;;52.80;;
36475;SDS011;56615;42.682;23.364;2023-12-20T14:10:29;138.55;;;56.10;;
36475;SDS011;56615;42.682;23.364;2023-12-20T14:13:01;135.55;;;54.10;;
36475;SDS011;56615;42.682;23.364;2023-12-20T14:15:48;140.55;;;54.92;;
36475;SDS011;56615;42.682;23.364;2023-12-20T14:18:14;124.38;;;53.47;;
36475;SDS011;56615;42.682;23.364;2023-12-20T14:20:43;142.18;;;55.58;;
36475;SDS011;56615;42.682;23.364;2023-12-20T14:23:18;129.15;;;55.25;;
36475;SDS011;56615;42.682;23.364;2023-12-20T14:25:53;130.90;;;54.58;;
36475;SDS011;56615;42.682;23.364;2023-12-20T14:28:24;136.52;;;56.42;;
36475;SDS011;56615;42.682;23.364;2023-12-20T14:30:49;174.52;;;72.80;;